createdAt,value
2023-01-13T00:17:01.856Z,667
2023-01-13T00:37:08.725Z,648
2023-01-13T00:57:08.902Z,635
2023-01-13T01:37:01.916Z,658
2023-01-13T01:57:01.854Z,634
2023-01-13T02:57:01.772Z,652
2023-01-13T03:17:01.795Z,644
2023-01-13T04:17:01.688Z,681
2023-01-13T04:37:01.680Z,678
2023-01-13T05:37:01.610Z,654
2023-01-13T05:57:08.697Z,677
2023-01-13T06:57:01.060Z,660
2023-01-13T07:17:01.616Z,647
2023-01-13T08:17:01.485Z,669
2023-01-13T08:37:01.470Z,643
2023-01-13T08:57:08.503Z,653
2023-01-13T09:37:00.890Z,639
2023-01-13T09:57:01.238Z,647
2023-01-13T10:17:08.159Z,643
2023-01-13T10:37:01.339Z,634
2023-01-13T10:57:01.303Z,626
2023-01-13T11:17:01.259Z,668
2023-01-13T11:37:07.785Z,625
2023-01-13T11:57:08.271Z,669
2023-01-13T12:17:01.488Z,633
2023-01-13T12:37:01.247Z,631
2023-01-13T12:57:08.199Z,636
2023-01-13T13:17:01.341Z,622
2023-01-13T13:37:01.162Z,626
2023-01-13T13:57:01.150Z,628
2023-01-13T14:17:01.071Z,630
2023-01-13T14:37:01.044Z,636
2023-01-13T14:57:01.005Z,638
2023-01-13T15:17:01.213Z,637
2023-01-13T15:37:00.933Z,619
2023-01-13T15:57:00.918Z,638
2023-01-13T16:17:00.916Z,621
2023-01-13T16:37:00.937Z,623
2023-01-13T16:57:00.943Z,611
2023-01-13T17:17:01.008Z,636
2023-01-13T17:37:00.434Z,623
2023-01-13T17:57:00.885Z,618
2023-01-13T18:17:00.947Z,601
2023-01-13T19:17:01.050Z,619
2023-01-13T19:37:00.876Z,615
2023-01-13T19:57:00.786Z,614
2023-01-13T20:17:00.733Z,597
2023-01-13T21:57:00.687Z,597
2023-01-13T22:17:00.674Z,606
2023-01-13T22:37:07.652Z,592
2023-01-13T22:57:07.591Z,590
2023-01-13T23:17:07.625Z,591
2023-01-13T23:37:00.073Z,581
2023-01-13T23:57:00.110Z,583
